Ana Sayfa
METAR-TAF:

METAR-TAF

Havaalanları :

Noorvik, Alaska, Amerika Birleşik Devletleri

Enlem: 66-49-03N, Boylam: 161-01-20W, yükseklik: 17 m

Güncel hava durumu gözlemi

Rapor saat 04:56 UTC de 18 dakika önce yapıldı.
Rüzgar doğu/kuzeydoğudan 11 kt
Sıcaklık -7°C
Nem 73%
Basınç 1026 hPa
Görüş mesafesi: 12.9 km
2500 ft yükseklikte çok bulutlu

METAR: PFNO 010456Z AUTO 07011KT 8SM OVC025 M07/M11 A3029 RMK AO2 SLP344 T10721111 FZRANO

Saat: 21:14 (05:14 UTC)


TAF: eksik

4.000'den fazla havaalanı için hava durumu gözlemleri ve tahminleri (METAR ve TAF raporları).

Kullanılabilir istasyonlar harita üzerinde sarı ve kırmızı noktalarla gösterilir.

İstasyonun adını görmek için fareyi noktanın üzerinde gezdirin.

Sonrasında hava gözlem ve tahminlerini görmek için tıklayın.

Haritayı değiştirmek için: yaklaştırmak için siyah artı işaretli yeşil düğmeye ve uzaklaştırmak için de eksi işaretli düğmeye hızla tıklayın; bitişik haritalar için yeşil okları kullanın.


METAR-TAF: